createdAt,value
2022-10-13T00:01:20.339Z,98260.41
2022-10-13T00:03:49.552Z,98260.28
2022-10-13T00:06:20.523Z,98261.41
2022-10-13T00:08:49.216Z,98265.44
2022-10-13T00:11:28.735Z,98268.66
2022-10-13T00:13:59.805Z,98264.75
2022-10-13T00:16:28.899Z,98260.06
2022-10-13T00:18:57.053Z,98263.88
2022-10-13T00:21:27.348Z,98261.34
2022-10-13T00:23:58.475Z,98261.88
2022-10-13T00:26:31.937Z,98261.38
2022-10-13T00:29:00.019Z,98265.09
2022-10-13T00:31:32.752Z,98258.09
2022-10-13T00:34:02.319Z,98265.34
2022-10-13T00:36:30.844Z,98264.09
2022-10-13T00:38:59.269Z,98257.56
2022-10-13T00:41:29.996Z,98257.47
2022-10-13T00:44:28.777Z,98264.56
2022-10-13T00:46:59.711Z,98264.34
2022-10-13T00:49:27.711Z,98259.75
2022-10-13T00:51:55.754Z,98271.97
2022-10-13T00:54:25.916Z,98265.19
2022-10-13T00:56:55.176Z,98269.22
2022-10-13T00:59:28.153Z,98272.94
2022-10-13T01:02:00.162Z,98272.50
2022-10-13T01:04:35.164Z,98273.44
2022-10-13T01:07:04.481Z,98265.94
2022-10-13T01:09:32.668Z,98267.03
2022-10-13T01:12:29.751Z,98268.63
2022-10-13T01:15:07.798Z,98273.13
2022-10-13T01:17:49.328Z,98274.22
2022-10-13T01:20:53.603Z,98277.47
2022-10-13T01:23:38.218Z,98277.47
2022-10-13T01:26:27.133Z,98273.19
2022-10-13T01:29:11.222Z,98285.34
2022-10-13T01:31:43.585Z,98286.56
2022-10-13T01:34:11.614Z,98291.03
2022-10-13T01:37:04.281Z,98286.81
2022-10-13T01:39:43.870Z,98293.84
2022-10-13T01:42:39.589Z,98286.88
2022-10-13T01:45:12.047Z,98287.25
2022-10-13T01:47:44.363Z,98293.22
2022-10-13T01:50:13.248Z,98291.00
2022-10-13T01:52:42.731Z,98291.47
2022-10-13T01:55:13.559Z,98289.13
2022-10-13T01:57:46.468Z,98291.44
2022-10-13T02:00:22.581Z,98298.25
2022-10-13T02:03:11.500Z,98295.19
2022-10-13T02:05:47.350Z,98291.34
2022-10-13T02:08:26.378Z,98302.44
2022-10-13T02:10:56.903Z,98301.53
2022-10-13T02:13:28.725Z,98307.19
2022-10-13T02:15:59.859Z,98318.41
2022-10-13T02:18:32.425Z,98316.41
2022-10-13T02:21:01.475Z,98318.31
2022-10-13T02:23:32.831Z,98319.50
2022-10-13T02:26:01.514Z,98318.75
2022-10-13T02:28:29.922Z,98311.13
2022-10-13T02:31:04.878Z,98315.31
2022-10-13T02:33:35.807Z,98321.88
2022-10-13T02:36:03.896Z,98318.78
2022-10-13T02:38:32.107Z,98320.72
2022-10-13T02:41:04.567Z,98321.09
2022-10-13T02:43:32.680Z,98310.34
2022-10-13T02:46:03.947Z,98321.09
2022-10-13T02:48:31.950Z,98318.78
2022-10-13T02:51:05.399Z,98320.31
2022-10-13T02:53:35.985Z,98321.06
2022-10-13T02:56:07.224Z,98321.84
2022-10-13T02:58:35.957Z,98329.50
2022-10-13T03:01:08.708Z,98332.50
2022-10-13T03:03:37.727Z,98331.19
2022-10-13T03:06:06.545Z,98340.34
2022-10-13T03:08:35.865Z,98333.88
2022-10-13T03:11:03.924Z,98343.41
2022-10-13T03:13:32.035Z,98337.13
2022-10-13T03:16:00.156Z,98333.03
2022-10-13T03:18:28.209Z,98330.72
2022-10-13T03:21:05.234Z,98333.94
2022-10-13T03:23:35.638Z,98329.72
2022-10-13T03:26:05.406Z,98334.63
2022-10-13T03:28:33.463Z,98331.66
2022-10-13T03:31:06.474Z,98320.94
2022-10-13T03:33:34.586Z,98333.53
2022-10-13T03:36:04.922Z,98338.00
2022-10-13T03:38:36.188Z,98341.44
2022-10-13T03:41:17.921Z,98347.19
2022-10-13T03:43:46.582Z,98343.19
2022-10-13T03:46:20.963Z,98341.59
2022-10-13T03:48:49.181Z,98331.72
2022-10-13T03:51:24.316Z,98345.25
2022-10-13T03:53:53.721Z,98339.06
2022-10-13T03:56:27.572Z,98338.91
2022-10-13T03:58:57.951Z,98345.72
2022-10-13T04:01:29.795Z,98341.72
2022-10-13T04:03:59.515Z,98340.25
2022-10-13T04:06:27.915Z,98333.50
2022-10-13T04:08:58.637Z,98347.75
2022-10-13T04:11:26.802Z,98339.06
2022-10-13T04:13:56.332Z,98341.16
2022-10-13T04:16:27.207Z,98346.47
2022-10-13T04:19:06.200Z,98350.56
2022-10-13T04:21:36.611Z,98356.56
2022-10-13T04:24:08.554Z,98361.81
2022-10-13T04:26:37.657Z,98359.44
2022-10-13T04:29:08.240Z,98357.69
2022-10-13T04:31:40.315Z,98363.31
2022-10-13T04:34:08.339Z,98363.72
2022-10-13T04:36:37.493Z,98357.94
2022-10-13T04:39:05.808Z,98371.56
2022-10-13T04:41:33.991Z,98373.03
2022-10-13T04:44:04.349Z,98382.19
2022-10-13T04:46:32.380Z,98375.59
2022-10-13T04:49:00.477Z,98377.50
2022-10-13T04:51:31.420Z,98378.78
2022-10-13T04:54:03.893Z,98378.09
2022-10-13T04:56:34.624Z,98373.84
2022-10-13T04:59:02.846Z,98376.50
2022-10-13T05:01:34.270Z,98374.41
2022-10-13T05:04:05.301Z,98373.00
2022-10-13T05:06:39.285Z,98371.81
2022-10-13T05:09:17.347Z,98373.16
2022-10-13T05:11:45.471Z,98367.03
2022-10-13T05:14:16.366Z,98372.22
2022-10-13T05:16:44.378Z,98368.97
2022-10-13T05:19:12.436Z,98372.75
2022-10-13T05:21:42.918Z,98362.06
2022-10-13T05:24:13.283Z,98379.03
2022-10-13T05:26:42.028Z,98375.25
2022-10-13T05:29:10.376Z,98378.41
2022-10-13T05:31:38.364Z,98376.13
2022-10-13T05:34:06.449Z,98376.13
2022-10-13T05:36:35.647Z,98376.19
2022-10-13T05:39:05.952Z,98385.22
2022-10-13T05:41:34.480Z,98383.09
2022-10-13T05:44:08.046Z,98392.94
2022-10-13T05:46:36.461Z,98399.00
2022-10-13T05:49:05.068Z,98395.31
2022-10-13T05:51:39.864Z,98406.75
2022-10-13T05:54:14.807Z,98414.38
2022-10-13T05:56:52.739Z,98410.34
2022-10-13T05:59:26.038Z,98416.97
2022-10-13T06:01:57.428Z,98418.94
2022-10-13T06:04:31.105Z,98424.16
2022-10-13T06:07:01.596Z,98418.88
2022-10-13T06:09:34.669Z,98426.91
2022-10-13T06:12:04.406Z,98428.59
2022-10-13T06:14:33.095Z,98420.47
2022-10-13T06:17:01.153Z,98423.56
2022-10-13T06:19:34.309Z,98429.09
2022-10-13T06:22:04.863Z,98436.66
2022-10-13T06:24:32.950Z,98444.38
2022-10-13T06:27:01.000Z,98435.16
2022-10-13T06:29:29.082Z,98427.78
2022-10-13T06:31:57.136Z,98430.50
2022-10-13T06:34:25.189Z,98427.41
2022-10-13T06:36:53.251Z,98443.50
2022-10-13T06:39:21.285Z,98428.72
2022-10-13T06:41:52.300Z,98431.81
2022-10-13T06:44:22.659Z,98433.53
2022-10-13T06:46:50.673Z,98434.91
2022-10-13T06:49:18.834Z,98435.63
2022-10-13T06:51:46.876Z,98435.72
2022-10-13T06:54:17.734Z,98432.72
2022-10-13T06:56:48.369Z,98435.63
2022-10-13T06:59:16.425Z,98435.81
2022-10-13T07:01:44.533Z,98437.56
2022-10-13T07:04:14.836Z,98429.75
2022-10-13T07:06:45.797Z,98438.72
2022-10-13T07:09:13.806Z,98440.06
2022-10-13T07:11:45.406Z,98440.97
2022-10-13T07:14:14.772Z,98440.72
2022-10-13T07:16:42.816Z,98452.63
2022-10-13T07:19:10.925Z,98445.88
2022-10-13T07:21:38.917Z,98441.19
2022-10-13T07:24:07.233Z,98443.56
2022-10-13T07:26:35.355Z,98442.69
2022-10-13T07:29:03.498Z,98440.94
2022-10-13T07:31:31.636Z,98450.97
2022-10-13T07:34:00.794Z,98442.69
2022-10-13T07:36:28.847Z,98450.19
2022-10-13T07:38:56.842Z,98452.84
2022-10-13T07:41:27.563Z,98447.31
2022-10-13T07:43:57.286Z,98451.97
2022-10-13T07:46:25.686Z,98446.88
2022-10-13T07:48:54.740Z,98449.38
2022-10-13T07:51:25.517Z,98439.03
2022-10-13T07:53:53.568Z,98455.53
2022-10-13T07:56:24.537Z,98445.38
2022-10-13T07:58:52.604Z,98444.25
2022-10-13T08:01:20.743Z,98454.13
2022-10-13T08:03:50.330Z,98449.78
2022-10-13T08:06:19.221Z,98452.09
2022-10-13T08:08:47.653Z,98455.56
2022-10-13T08:11:17.340Z,98458.03
2022-10-13T08:13:52.765Z,98458.59
2022-10-13T08:16:23.397Z,98447.78
2022-10-13T08:18:53.975Z,98453.47
2022-10-13T08:24:13.248Z,98452.75
2022-10-13T08:26:42.007Z,98462.16
2022-10-13T08:29:21.318Z,98454.19
2022-10-13T08:31:51.049Z,98457.53
2022-10-13T08:34:19.239Z,98455.25
2022-10-13T08:36:47.299Z,98456.03
2022-10-13T08:39:15.668Z,98457.25
2022-10-13T08:41:44.903Z,98455.25
2022-10-13T08:45:02.699Z,98451.84
2022-10-13T08:47:36.443Z,98446.72
2022-10-13T08:50:16.033Z,98445.59
2022-10-13T08:52:50.874Z,98436.41
2022-10-13T08:55:36.428Z,98443.59
2022-10-13T08:58:13.796Z,98435.63
2022-10-13T09:00:43.500Z,98438.63
2022-10-13T09:03:28.275Z,98449.03
2022-10-13T09:06:11.021Z,98448.38
2022-10-13T09:08:54.139Z,98448.06
2022-10-13T09:11:22.437Z,98459.00
2022-10-13T09:13:55.710Z,98448.53
2022-10-13T09:16:44.778Z,98455.38
2022-10-13T09:19:28.557Z,98450.88
2022-10-13T09:22:13.941Z,98456.31
2022-10-13T09:24:42.185Z,98450.00
2022-10-13T09:27:16.292Z,98446.84
2022-10-13T09:29:45.733Z,98444.91
2022-10-13T09:32:23.268Z,98443.16
2022-10-13T09:34:51.969Z,98437.81
2022-10-13T09:37:26.443Z,98431.06
2022-10-13T09:40:23.260Z,98430.28
2022-10-13T09:42:56.845Z,98431.06
2022-10-13T09:45:26.892Z,98432.69
2022-10-13T09:48:07.458Z,98427.44
2022-10-13T09:50:36.787Z,98438.41
2022-10-13T09:53:26.093Z,98436.41
2022-10-13T09:56:09.569Z,98428.72
2022-10-13T09:58:47.699Z,98438.38
2022-10-13T10:01:23.177Z,98439.66
2022-10-13T10:03:52.476Z,98427.63
2022-10-13T10:06:22.857Z,98434.25
2022-10-13T10:09:33.813Z,98438.00
2022-10-13T10:12:06.311Z,98432.63
2022-10-13T10:14:37.852Z,98436.09
2022-10-13T10:17:32.454Z,98444.44
2022-10-13T10:20:00.003Z,98431.72
2022-10-13T10:22:27.946Z,98440.22
2022-10-13T10:25:04.803Z,98445.38
2022-10-13T10:27:49.420Z,98454.50
2022-10-13T10:30:20.009Z,98460.41
2022-10-13T10:33:02.981Z,98461.63
2022-10-13T10:36:06.167Z,98468.84
2022-10-13T10:38:52.589Z,98466.84
2022-10-13T10:41:51.699Z,98465.81
2022-10-13T10:44:36.497Z,98467.38
2022-10-13T10:47:19.691Z,98471.41
2022-10-13T10:49:56.338Z,98479.19
2022-10-13T10:52:48.415Z,98480.59
2022-10-13T10:55:28.769Z,98477.75
2022-10-13T10:58:03.913Z,98472.97
2022-10-13T11:00:40.116Z,98471.72
2022-10-13T11:03:51.100Z,98474.06
2022-10-13T11:06:19.097Z,98469.09
2022-10-13T11:08:50.434Z,98480.09
2022-10-13T11:11:25.174Z,98480.44
2022-10-13T11:14:07.924Z,98472.34
2022-10-13T11:16:41.697Z,98469.09
2022-10-13T11:19:09.664Z,98472.50
2022-10-13T11:21:58.261Z,98473.91
2022-10-13T11:24:47.592Z,98476.41
2022-10-13T11:27:15.545Z,98471.56
2022-10-13T11:29:46.329Z,98476.75
2022-10-13T11:32:44.204Z,98471.28
2022-10-13T11:35:12.169Z,98475.47
2022-10-13T11:37:48.293Z,98478.56
2022-10-13T11:41:06.509Z,98489.94
2022-10-13T11:43:52.679Z,98488.38
2022-10-13T11:46:26.184Z,98483.44
2022-10-13T11:49:00.234Z,98492.66
2022-10-13T11:51:31.106Z,98495.91
2022-10-13T11:54:33.245Z,98501.56
2022-10-13T11:57:04.238Z,98497.50
2022-10-13T11:59:37.307Z,98493.47
2022-10-13T12:02:18.223Z,98492.97
2022-10-13T12:05:04.856Z,98493.59
2022-10-13T12:07:37.758Z,98498.72
2022-10-13T12:10:18.725Z,98500.00
2022-10-13T12:12:53.393Z,98493.75
2022-10-13T12:15:32.708Z,98490.81
2022-10-13T12:18:01.328Z,98488.31
2022-10-13T12:20:33.811Z,98492.34
2022-10-13T12:23:01.913Z,98493.91
2022-10-13T12:25:31.514Z,98503.41
2022-10-13T12:28:01.391Z,98501.69
2022-10-13T12:30:32.544Z,98499.81
2022-10-13T12:33:01.000Z,98495.91
2022-10-13T12:35:34.585Z,98495.16
2022-10-13T12:38:06.807Z,98497.34
2022-10-13T12:40:35.512Z,98488.59
2022-10-13T12:43:05.461Z,98499.97
2022-10-13T12:45:35.254Z,98500.28
2022-10-13T12:48:06.908Z,98496.56
2022-10-13T12:50:37.246Z,98490.81
2022-10-13T12:53:05.267Z,98489.56
2022-10-13T12:55:33.984Z,98488.00
2022-10-13T12:58:04.227Z,98490.34
2022-10-13T13:00:32.443Z,98486.47
2022-10-13T13:03:01.467Z,98484.75
2022-10-13T13:05:41.666Z,98486.63
2022-10-13T13:08:28.017Z,98485.38
2022-10-13T13:10:57.272Z,98483.78
2022-10-13T13:13:25.800Z,98478.69
2022-10-13T13:15:54.512Z,98483.00
2022-10-13T13:18:32.756Z,98475.84
2022-10-13T13:21:00.784Z,98476.06
2022-10-13T13:23:28.942Z,98484.25
2022-10-13T13:26:15.570Z,98490.97
2022-10-13T13:28:47.343Z,98489.28
2022-10-13T13:31:17.301Z,98489.00
2022-10-13T13:33:45.344Z,98485.91
2022-10-13T13:36:25.428Z,98480.34
2022-10-13T13:38:54.887Z,98492.50
2022-10-13T13:41:23.446Z,98485.50
2022-10-13T13:43:51.683Z,98485.19
2022-10-13T13:46:26.088Z,98484.88
2022-10-13T13:48:54.201Z,98481.63
2022-10-13T13:51:22.278Z,98478.50
2022-10-13T13:53:52.909Z,98473.53
2022-10-13T13:56:24.323Z,98474.78
2022-10-13T13:58:52.423Z,98478.63
2022-10-13T14:01:26.301Z,98469.94
2022-10-13T14:03:53.972Z,98477.41
2022-10-13T14:06:22.551Z,98471.78
2022-10-13T14:08:51.788Z,98474.66
2022-10-13T14:11:19.956Z,98471.69
2022-10-13T14:13:48.011Z,98469.81
2022-10-13T14:16:18.176Z,98474.53
2022-10-13T14:18:46.304Z,98474.06
2022-10-13T14:21:14.366Z,98471.06
2022-10-13T14:23:42.366Z,98472.47
2022-10-13T14:26:10.377Z,98467.13
2022-10-13T14:28:40.882Z,98469.19
2022-10-13T14:31:09.276Z,98473.91
2022-10-13T14:33:37.633Z,98473.75
2022-10-13T14:36:07.896Z,98472.09
2022-10-13T14:38:36.250Z,98475.00
2022-10-13T14:41:06.407Z,98479.94
2022-10-13T14:43:34.817Z,98476.97
2022-10-13T14:46:07.567Z,98464.94
2022-10-13T14:48:37.182Z,98463.16
2022-10-13T14:51:09.350Z,98455.25
2022-10-13T14:53:41.626Z,98460.56
2022-10-13T14:56:30.339Z,98452.34
2022-10-13T14:59:00.400Z,98455.50
2022-10-13T15:01:28.837Z,98459.91
2022-10-13T15:03:56.910Z,98454.16
2022-10-13T15:06:27.442Z,98454.03
2022-10-13T15:08:56.257Z,98468.84
2022-10-13T15:11:25.285Z,98462.94
2022-10-13T15:13:54.119Z,98469.63
2022-10-13T15:16:29.770Z,98482.91
2022-10-13T15:18:58.222Z,98476.53
2022-10-13T15:21:26.396Z,98482.44
2022-10-13T15:23:54.465Z,98482.50
2022-10-13T15:26:22.670Z,98475.53
2022-10-13T15:28:52.522Z,98478.34
2022-10-13T15:31:22.256Z,98473.03
2022-10-13T15:33:53.436Z,98469.81
2022-10-13T15:36:23.017Z,98469.94
2022-10-13T15:38:52.094Z,98462.38
2022-10-13T15:41:20.228Z,98461.66
2022-10-13T15:43:48.276Z,98455.34
2022-10-13T15:46:17.659Z,98454.59
2022-10-13T15:48:51.968Z,98453.50
2022-10-13T15:51:22.359Z,98464.69
2022-10-13T15:53:50.686Z,98468.53
2022-10-13T15:56:18.876Z,98466.97
2022-10-13T15:58:46.933Z,98468.72
2022-10-13T16:01:15.650Z,98470.00
2022-10-13T16:03:44.071Z,98465.94
2022-10-13T16:06:15.949Z,98454.00
2022-10-13T16:08:44.409Z,98449.38
2022-10-13T16:11:15.100Z,98451.34
2022-10-13T16:13:50.176Z,98463.97
2022-10-13T16:16:21.065Z,98460.53
2022-10-13T16:18:49.268Z,98458.63
2022-10-13T16:21:25.428Z,98463.00
2022-10-13T16:23:53.746Z,98469.50
2022-10-13T16:26:22.185Z,98455.53
2022-10-13T16:28:50.273Z,98446.50
2022-10-13T16:31:20.921Z,98458.75
2022-10-13T16:33:49.077Z,98452.97
2022-10-13T16:36:20.172Z,98461.41
2022-10-13T16:38:48.346Z,98452.53
2022-10-13T16:41:18.504Z,98453.59
2022-10-13T16:43:47.505Z,98460.66
2022-10-13T16:46:18.338Z,98458.06
2022-10-13T16:48:47.638Z,98459.25
2022-10-13T16:51:24.136Z,98446.38
2022-10-13T16:54:03.660Z,98450.78
2022-10-13T16:56:32.725Z,98442.44
2022-10-13T16:59:06.325Z,98430.47
2022-10-13T17:01:35.732Z,98424.03
2022-10-13T17:04:05.460Z,98427.44
2022-10-13T17:06:33.581Z,98424.78
2022-10-13T17:09:04.768Z,98425.53
2022-10-13T17:11:34.741Z,98417.47
2022-10-13T17:14:03.029Z,98419.06
2022-10-13T17:16:31.193Z,98408.97
2022-10-13T17:18:59.416Z,98407.66
2022-10-13T17:21:27.413Z,98413.91
2022-10-13T17:23:56.781Z,98414.44
2022-10-13T17:26:24.890Z,98410.97
2022-10-13T17:28:53.039Z,98407.06
2022-10-13T17:31:25.000Z,98403.22
2022-10-13T17:33:53.684Z,98397.84
2022-10-13T17:36:25.673Z,98398.19
2022-10-13T17:38:57.651Z,98403.38
2022-10-13T17:41:25.888Z,98406.50
2022-10-13T17:43:53.911Z,98403.44
2022-10-13T17:46:42.844Z,98401.19
2022-10-13T17:49:14.247Z,98384.91
2022-10-13T17:51:43.757Z,98386.44
2022-10-13T17:54:15.973Z,98389.63
2022-10-13T17:56:47.814Z,98379.69
2022-10-13T17:59:17.750Z,98372.25
2022-10-13T18:01:46.529Z,98370.34
2022-10-13T18:04:18.997Z,98367.69
2022-10-13T18:06:50.032Z,98359.88
2022-10-13T18:09:22.291Z,98349.13
2022-10-13T18:11:51.567Z,98346.84
2022-10-13T18:14:21.482Z,98342.94
2022-10-13T18:16:50.837Z,98328.00
2022-10-13T18:19:18.909Z,98323.41
2022-10-13T18:21:46.931Z,98322.59
2022-10-13T18:24:15.070Z,98312.63
2022-10-13T18:26:43.050Z,98317.53
2022-10-13T18:29:12.941Z,98306.47
2022-10-13T18:31:42.460Z,98304.09
2022-10-13T18:34:14.688Z,98297.09
2022-10-13T18:36:45.323Z,98291.56
2022-10-13T18:39:19.551Z,98274.16
2022-10-13T18:41:48.398Z,98278.47
2022-10-13T18:44:19.304Z,98281.34
2022-10-13T18:46:50.702Z,98272.53
2022-10-13T18:49:19.294Z,98265.47
2022-10-13T18:51:50.383Z,98248.22
2022-10-13T18:54:18.570Z,98257.31
2022-10-13T18:56:48.893Z,98254.72
2022-10-13T18:59:16.980Z,98257.19
2022-10-13T19:01:45.254Z,98252.84
2022-10-13T19:04:13.329Z,98255.09
2022-10-13T19:06:41.389Z,98254.06
2022-10-13T19:09:12.888Z,98254.19
2022-10-13T19:11:41.645Z,98253.66
2022-10-13T19:14:14.010Z,98232.19
2022-10-13T19:16:44.068Z,98224.84
2022-10-13T19:19:15.309Z,98207.59
2022-10-13T19:21:48.391Z,98201.25
2022-10-13T19:24:17.304Z,98179.84
2022-10-13T19:26:45.327Z,98179.69
2022-10-13T19:29:14.700Z,98172.22
2022-10-13T19:31:43.896Z,98161.38
2022-10-13T19:34:13.403Z,98160.09
2022-10-13T19:36:44.082Z,98149.56
2022-10-13T19:39:20.924Z,98160.59
2022-10-13T19:41:50.467Z,98159.97
2022-10-13T19:44:23.121Z,98152.78
2022-10-13T19:46:52.380Z,98154.84
2022-10-13T19:49:24.485Z,98155.91
2022-10-13T19:51:53.993Z,98148.69
2022-10-13T19:54:23.390Z,98141.06
2022-10-13T19:56:52.231Z,98143.88
2022-10-13T19:59:20.633Z,98134.19
2022-10-13T20:01:49.154Z,98133.13
2022-10-13T20:04:19.005Z,98136.00
2022-10-13T20:06:50.989Z,98124.03
2022-10-13T20:09:22.106Z,98111.78
2022-10-13T20:11:51.509Z,98117.59
2022-10-13T20:14:22.071Z,98104.13
2022-10-13T20:16:52.478Z,98115.56
2022-10-13T20:19:21.285Z,98110.13
2022-10-13T20:21:49.435Z,98112.22
2022-10-13T20:24:17.476Z,98110.31
2022-10-13T20:26:50.604Z,98105.47
2022-10-13T20:29:18.705Z,98093.75
2022-10-13T20:31:47.247Z,98093.50
2022-10-13T20:34:15.679Z,98093.16
2022-10-13T20:36:44.067Z,98093.25
2022-10-13T20:39:12.276Z,98092.34
2022-10-13T20:41:40.585Z,98092.53
2022-10-13T20:44:10.218Z,98086.41
2022-10-13T20:46:38.332Z,98076.75
2022-10-13T20:49:11.350Z,98068.06
2022-10-13T20:51:44.059Z,98075.22
2022-10-13T20:54:14.367Z,98074.53
2022-10-13T20:56:45.516Z,98073.47
2022-10-13T20:59:14.923Z,98064.13
2022-10-13T21:01:43.321Z,98059.72
2022-10-13T21:04:11.840Z,98052.75
2022-10-13T21:06:40.974Z,98047.66
2022-10-13T21:09:09.647Z,98041.47
2022-10-13T21:11:37.677Z,98034.63
2022-10-13T21:14:06.061Z,98030.34
2022-10-13T21:16:37.679Z,98016.25
2022-10-13T21:19:06.921Z,98015.53
2022-10-13T21:21:35.558Z,98003.13
2022-10-13T21:24:07.261Z,98000.25
2022-10-13T21:26:35.867Z,97998.84
2022-10-13T21:29:06.853Z,97992.06
2022-10-13T21:31:35.435Z,97979.44
2022-10-13T21:34:08.345Z,97970.94
2022-10-13T21:36:36.417Z,97954.31
2022-10-13T21:39:08.320Z,97954.06
2022-10-13T21:41:36.358Z,97949.53
2022-10-13T21:44:07.534Z,97954.91
2022-10-13T21:46:36.415Z,97950.97
2022-10-13T21:49:06.746Z,97949.09
2022-10-13T21:51:39.561Z,97952.81
2022-10-13T21:54:12.429Z,97950.44
2022-10-13T21:56:41.993Z,97926.22
2022-10-13T21:59:12.825Z,97926.63
2022-10-13T22:01:41.207Z,97909.66
2022-10-13T22:04:16.034Z,97912.25
2022-10-13T22:06:44.468Z,97899.13
2022-10-13T22:09:14.796Z,97904.19
2022-10-13T22:11:43.356Z,97897.31
2022-10-13T22:14:11.837Z,97904.78
2022-10-13T22:16:49.289Z,98008.56
2022-10-13T22:19:21.790Z,98180.69
2022-10-13T22:21:50.876Z,98092.69
2022-10-13T22:24:21.397Z,98070.06
2022-10-13T22:26:50.709Z,97898.69
2022-10-13T22:29:21.700Z,97876.06
2022-10-13T22:31:50.576Z,97871.06
2022-10-13T22:34:18.955Z,97892.25
2022-10-13T22:36:49.388Z,97934.00
2022-10-13T22:39:17.413Z,97913.91
2022-10-13T22:41:45.686Z,97865.50
2022-10-13T22:44:14.053Z,97857.75
2022-10-13T22:46:42.566Z,97863.91
2022-10-13T22:49:12.609Z,97859.38
2022-10-13T22:51:40.656Z,97863.94
2022-10-13T22:54:11.396Z,97890.63
2022-10-13T22:56:40.975Z,97848.22
2022-10-13T22:59:09.921Z,97848.16
2022-10-13T23:01:38.115Z,97856.78
2022-10-13T23:04:06.959Z,97851.72
2022-10-13T23:06:35.952Z,97829.00
2022-10-13T23:09:06.349Z,97828.19
2022-10-13T23:11:38.636Z,97817.41
2022-10-13T23:14:07.013Z,97858.53
2022-10-13T23:16:35.841Z,97884.13
2022-10-13T23:19:04.021Z,97890.63
2022-10-13T23:21:33.059Z,97871.19
2022-10-13T23:24:05.344Z,97884.78
2022-10-13T23:26:35.413Z,97883.22
2022-10-13T23:29:03.807Z,97838.91
2022-10-13T23:31:34.579Z,97845.81
2022-10-13T23:34:05.300Z,97784.00
2022-10-13T23:36:33.963Z,97780.75
2022-10-13T23:39:04.938Z,97774.50
2022-10-13T23:41:35.686Z,97769.63
2022-10-13T23:44:06.221Z,97771.09
2022-10-13T23:46:34.271Z,97765.28
2022-10-13T23:49:02.297Z,97761.81
2022-10-13T23:51:30.501Z,97757.22
2022-10-13T23:53:59.419Z,97756.38
2022-10-13T23:56:29.828Z,97765.34
2022-10-13T23:59:00.995Z,97757.88
